sensor_id;sensor_type;location;lat;lon;timestamp;P1;durP1;ratioP1;P2;durP2;ratioP2
18726;SDS011;9492;51.888;5.186;2023-06-14T00:01:48;6.87;;;2.93;;
18726;SDS011;9492;51.888;5.186;2023-06-14T00:04:14;5.27;;;3.10;;
18726;SDS011;9492;51.888;5.186;2023-06-14T00:06:45;5.87;;;2.50;;
18726;SDS011;9492;51.888;5.186;2023-06-14T00:09:11;6.13;;;3.20;;
18726;SDS011;9492;51.888;5.186;2023-06-14T00:11:38;4.10;;;2.60;;
18726;SDS011;9492;51.888;5.186;2023-06-14T00:14:04;3.50;;;2.50;;
18726;SDS011;9492;51.888;5.186;2023-06-14T00:16:30;4.17;;;3.00;;
18726;SDS011;9492;51.888;5.186;2023-06-14T00:18:58;6.03;;;3.30;;
18726;SDS011;9492;51.888;5.186;2023-06-14T00:21:24;3.90;;;2.57;;
18726;SDS011;9492;51.888;5.186;2023-06-14T00:23:54;4.23;;;2.90;;
18726;SDS011;9492;51.888;5.186;2023-06-14T00:26:20;5.27;;;3.13;;
18726;SDS011;9492;51.888;5.186;2023-06-14T00:28:46;3.20;;;2.80;;
18726;SDS011;9492;51.888;5.186;2023-06-14T00:31:12;3.67;;;2.90;;
18726;SDS011;9492;51.888;5.186;2023-06-14T00:33:38;4.30;;;2.40;;
18726;SDS011;9492;51.888;5.186;2023-06-14T00:36:04;4.23;;;3.03;;
18726;SDS011;9492;51.888;5.186;2023-06-14T00:38:30;3.23;;;2.40;;
18726;SDS011;9492;51.888;5.186;2023-06-14T00:40:56;3.67;;;2.60;;
18726;SDS011;9492;51.888;5.186;2023-06-14T00:43:22;4.47;;;2.20;;
18726;SDS011;9492;51.888;5.186;2023-06-14T00:45:48;4.23;;;2.90;;
18726;SDS011;9492;51.888;5.186;2023-06-14T00:48:16;3.43;;;2.80;;
18726;SDS011;9492;51.888;5.186;2023-06-14T00:50:42;2.80;;;2.60;;
18726;SDS011;9492;51.888;5.186;2023-06-14T00:53:10;2.57;;;2.30;;
18726;SDS011;9492;51.888;5.186;2023-06-14T00:55:36;3.80;;;3.10;;
18726;SDS011;9492;51.888;5.186;2023-06-14T00:58:02;3.17;;;2.30;;
18726;SDS011;9492;51.888;5.186;2023-06-14T01:00:28;5.27;;;3.33;;
18726;SDS011;9492;51.888;5.186;2023-06-14T01:03:02;5.03;;;3.07;;
18726;SDS011;9492;51.888;5.186;2023-06-14T01:05:28;3.80;;;2.60;;
18726;SDS011;9492;51.888;5.186;2023-06-14T01:13:35;4.07;;;2.40;;
18726;SDS011;9492;51.888;5.186;2023-06-14T01:16:02;4.27;;;2.87;;
18726;SDS011;9492;51.888;5.186;2023-06-14T01:18:28;4.40;;;2.57;;
18726;SDS011;9492;51.888;5.186;2023-06-14T01:20:55;5.00;;;2.97;;
18726;SDS011;9492;51.888;5.186;2023-06-14T01:23:22;3.17;;;2.70;;
18726;SDS011;9492;51.888;5.186;2023-06-14T01:25:49;3.67;;;2.70;;
18726;SDS011;9492;51.888;5.186;2023-06-14T01:28:19;3.27;;;2.43;;
18726;SDS011;9492;51.888;5.186;2023-06-14T01:30:46;2.87;;;2.50;;
18726;SDS011;9492;51.888;5.186;2023-06-14T01:33:13;3.33;;;2.57;;
18726;SDS011;9492;51.888;5.186;2023-06-14T01:35:50;4.03;;;2.37;;
18726;SDS011;9492;51.888;5.186;2023-06-14T01:38:17;3.47;;;2.50;;
18726;SDS011;9492;51.888;5.186;2023-06-14T01:40:43;5.73;;;2.60;;
18726;SDS011;9492;51.888;5.186;2023-06-14T01:43:10;2.53;;;2.33;;
18726;SDS011;9492;51.888;5.186;2023-06-14T01:45:36;5.17;;;2.23;;
18726;SDS011;9492;51.888;5.186;2023-06-14T01:48:02;3.57;;;2.80;;
18726;SDS011;9492;51.888;5.186;2023-06-14T01:50:29;4.07;;;3.00;;
18726;SDS011;9492;51.888;5.186;2023-06-14T01:52:56;7.17;;;2.73;;
18726;SDS011;9492;51.888;5.186;2023-06-14T01:55:22;2.60;;;2.40;;
18726;SDS011;9492;51.888;5.186;2023-06-14T01:57:49;8.17;;;2.90;;
18726;SDS011;9492;51.888;5.186;2023-06-14T02:00:15;4.80;;;3.20;;
18726;SDS011;9492;51.888;5.186;2023-06-14T02:02:43;3.10;;;2.60;;
18726;SDS011;9492;51.888;5.186;2023-06-14T02:05:09;3.07;;;2.60;;
18726;SDS011;9492;51.888;5.186;2023-06-14T02:07:36;9.90;;;3.17;;
18726;SDS011;9492;51.888;5.186;2023-06-14T02:10:02;6.30;;;2.40;;
18726;SDS011;9492;51.888;5.186;2023-06-14T02:12:29;4.97;;;2.70;;
18726;SDS011;9492;51.888;5.186;2023-06-14T02:14:58;5.53;;;3.60;;
18726;SDS011;9492;51.888;5.186;2023-06-14T02:17:24;7.87;;;2.97;;
18726;SDS011;9492;51.888;5.186;2023-06-14T02:19:52;4.83;;;2.40;;
18726;SDS011;9492;51.888;5.186;2023-06-14T02:22:19;4.63;;;2.70;;
18726;SDS011;9492;51.888;5.186;2023-06-14T02:24:48;4.10;;;2.80;;
18726;SDS011;9492;51.888;5.186;2023-06-14T02:27:15;3.90;;;2.87;;
18726;SDS011;9492;51.888;5.186;2023-06-14T02:29:41;4.37;;;2.63;;
18726;SDS011;9492;51.888;5.186;2023-06-14T02:32:07;4.47;;;2.60;;
18726;SDS011;9492;51.888;5.186;2023-06-14T02:34:34;4.73;;;2.57;;
18726;SDS011;9492;51.888;5.186;2023-06-14T02:37:00;5.83;;;3.03;;
18726;SDS011;9492;51.888;5.186;2023-06-14T02:39:28;7.00;;;2.60;;
18726;SDS011;9492;51.888;5.186;2023-06-14T02:41:54;3.90;;;2.50;;
18726;SDS011;9492;51.888;5.186;2023-06-14T02:44:23;3.30;;;2.37;;
18726;SDS011;9492;51.888;5.186;2023-06-14T02:46:50;4.80;;;2.67;;
18726;SDS011;9492;51.888;5.186;2023-06-14T02:49:16;4.37;;;2.53;;
18726;SDS011;9492;51.888;5.186;2023-06-14T02:51:42;3.10;;;2.30;;
18726;SDS011;9492;51.888;5.186;2023-06-14T02:54:08;3.73;;;2.50;;
18726;SDS011;9492;51.888;5.186;2023-06-14T02:56:34;5.07;;;2.67;;
18726;SDS011;9492;51.888;5.186;2023-06-14T02:59:01;5.37;;;2.43;;
18726;SDS011;9492;51.888;5.186;2023-06-14T03:01:27;3.67;;;2.60;;
18726;SDS011;9492;51.888;5.186;2023-06-14T03:03:59;4.13;;;2.60;;
18726;SDS011;9492;51.888;5.186;2023-06-14T03:06:27;2.30;;;2.10;;
18726;SDS011;9492;51.888;5.186;2023-06-14T03:08:54;2.60;;;2.40;;
18726;SDS011;9492;51.888;5.186;2023-06-14T03:11:24;3.40;;;2.70;;
18726;SDS011;9492;51.888;5.186;2023-06-14T03:13:50;5.37;;;2.80;;
18726;SDS011;9492;51.888;5.186;2023-06-14T03:16:17;5.27;;;2.70;;
18726;SDS011;9492;51.888;5.186;2023-06-14T03:18:46;6.60;;;2.60;;
18726;SDS011;9492;51.888;5.186;2023-06-14T03:21:12;4.20;;;2.50;;
18726;SDS011;9492;51.888;5.186;2023-06-14T03:23:41;4.67;;;2.77;;
18726;SDS011;9492;51.888;5.186;2023-06-14T03:26:07;2.90;;;2.60;;
18726;SDS011;9492;51.888;5.186;2023-06-14T03:28:33;5.97;;;2.87;;
18726;SDS011;9492;51.888;5.186;2023-06-14T03:30:59;4.33;;;2.70;;
18726;SDS011;9492;51.888;5.186;2023-06-14T03:33:26;6.73;;;3.23;;
18726;SDS011;9492;51.888;5.186;2023-06-14T03:35:52;3.57;;;2.87;;
18726;SDS011;9492;51.888;5.186;2023-06-14T03:38:18;4.57;;;2.60;;
18726;SDS011;9492;51.888;5.186;2023-06-14T03:40:44;4.23;;;2.30;;
18726;SDS011;9492;51.888;5.186;2023-06-14T03:43:10;5.17;;;2.67;;
18726;SDS011;9492;51.888;5.186;2023-06-14T03:45:36;8.63;;;2.80;;
18726;SDS011;9492;51.888;5.186;2023-06-14T03:48:02;4.83;;;2.53;;
18726;SDS011;9492;51.888;5.186;2023-06-14T03:50:31;2.40;;;2.20;;
18726;SDS011;9492;51.888;5.186;2023-06-14T03:52:57;4.17;;;2.67;;
18726;SDS011;9492;51.888;5.186;2023-06-14T03:55:23;4.63;;;2.70;;
18726;SDS011;9492;51.888;5.186;2023-06-14T03:57:52;4.63;;;2.60;;
18726;SDS011;9492;51.888;5.186;2023-06-14T04:00:18;6.47;;;2.37;;
18726;SDS011;9492;51.888;5.186;2023-06-14T04:02:44;3.37;;;2.20;;
18726;SDS011;9492;51.888;5.186;2023-06-14T04:05:11;4.00;;;2.40;;
18726;SDS011;9492;51.888;5.186;2023-06-14T04:07:37;3.13;;;2.63;;
18726;SDS011;9492;51.888;5.186;2023-06-14T04:10:07;2.80;;;2.53;;
18726;SDS011;9492;51.888;5.186;2023-06-14T04:12:33;3.30;;;2.40;;
18726;SDS011;9492;51.888;5.186;2023-06-14T04:14:59;6.97;;;2.83;;
18726;SDS011;9492;51.888;5.186;2023-06-14T04:17:25;4.83;;;2.80;;
18726;SDS011;9492;51.888;5.186;2023-06-14T04:19:52;5.70;;;2.60;;
18726;SDS011;9492;51.888;5.186;2023-06-14T04:22:18;2.73;;;2.47;;
18726;SDS011;9492;51.888;5.186;2023-06-14T04:24:44;3.03;;;2.20;;
18726;SDS011;9492;51.888;5.186;2023-06-14T04:27:10;2.60;;;2.40;;
18726;SDS011;9492;51.888;5.186;2023-06-14T04:29:36;2.70;;;2.30;;
18726;SDS011;9492;51.888;5.186;2023-06-14T04:32:02;3.13;;;2.63;;
18726;SDS011;9492;51.888;5.186;2023-06-14T04:34:29;3.93;;;2.83;;
18726;SDS011;9492;51.888;5.186;2023-06-14T04:36:57;7.93;;;2.83;;
18726;SDS011;9492;51.888;5.186;2023-06-14T04:39:24;2.87;;;2.57;;
18726;SDS011;9492;51.888;5.186;2023-06-14T04:41:51;4.27;;;2.60;;
18726;SDS011;9492;51.888;5.186;2023-06-14T04:44:18;3.80;;;2.77;;
18726;SDS011;9492;51.888;5.186;2023-06-14T04:46:45;2.67;;;2.47;;
18726;SDS011;9492;51.888;5.186;2023-06-14T04:49:14;6.10;;;2.50;;
18726;SDS011;9492;51.888;5.186;2023-06-14T04:51:45;6.73;;;2.67;;
18726;SDS011;9492;51.888;5.186;2023-06-14T04:54:14;5.27;;;2.83;;
18726;SDS011;9492;51.888;5.186;2023-06-14T04:56:40;5.00;;;2.70;;
18726;SDS011;9492;51.888;5.186;2023-06-14T04:59:07;3.10;;;2.80;;
18726;SDS011;9492;51.888;5.186;2023-06-14T05:01:34;3.90;;;3.20;;
18726;SDS011;9492;51.888;5.186;2023-06-14T05:04:00;10.23;;;2.63;;
18726;SDS011;9492;51.888;5.186;2023-06-14T05:06:26;2.97;;;2.73;;
18726;SDS011;9492;51.888;5.186;2023-06-14T05:08:52;4.53;;;3.07;;
18726;SDS011;9492;51.888;5.186;2023-06-14T05:11:19;3.80;;;2.97;;
18726;SDS011;9492;51.888;5.186;2023-06-14T05:13:45;3.63;;;2.40;;
18726;SDS011;9492;51.888;5.186;2023-06-14T05:16:11;4.13;;;2.80;;
18726;SDS011;9492;51.888;5.186;2023-06-14T05:18:40;3.50;;;3.20;;
18726;SDS011;9492;51.888;5.186;2023-06-14T05:21:06;5.43;;;3.20;;
18726;SDS011;9492;51.888;5.186;2023-06-14T05:23:32;4.10;;;3.10;;
18726;SDS011;9492;51.888;5.186;2023-06-14T05:25:59;4.13;;;2.70;;
18726;SDS011;9492;51.888;5.186;2023-06-14T05:28:27;4.27;;;2.50;;
18726;SDS011;9492;51.888;5.186;2023-06-14T05:30:54;3.27;;;2.83;;
18726;SDS011;9492;51.888;5.186;2023-06-14T05:33:20;5.27;;;2.70;;
18726;SDS011;9492;51.888;5.186;2023-06-14T05:35:46;4.07;;;2.77;;
18726;SDS011;9492;51.888;5.186;2023-06-14T05:38:12;4.07;;;2.70;;
18726;SDS011;9492;51.888;5.186;2023-06-14T05:40:38;4.67;;;2.80;;
18726;SDS011;9492;51.888;5.186;2023-06-14T05:43:04;3.97;;;2.87;;
18726;SDS011;9492;51.888;5.186;2023-06-14T05:45:30;3.77;;;2.53;;
18726;SDS011;9492;51.888;5.186;2023-06-14T05:47:56;5.33;;;2.63;;
18726;SDS011;9492;51.888;5.186;2023-06-14T05:50:22;3.33;;;2.87;;
18726;SDS011;9492;51.888;5.186;2023-06-14T05:52:48;3.13;;;2.57;;
18726;SDS011;9492;51.888;5.186;2023-06-14T05:55:15;3.90;;;2.70;;
18726;SDS011;9492;51.888;5.186;2023-06-14T05:57:41;3.60;;;2.37;;
18726;SDS011;9492;51.888;5.186;2023-06-14T06:00:08;4.72;;;2.70;;
18726;SDS011;9492;51.888;5.186;2023-06-14T06:02:39;6.07;;;2.65;;
18726;SDS011;9492;51.888;5.186;2023-06-14T06:05:07;3.03;;;2.67;;
18726;SDS011;9492;51.888;5.186;2023-06-14T06:07:33;3.85;;;2.67;;
18726;SDS011;9492;51.888;5.186;2023-06-14T06:09:59;8.30;;;3.20;;
18726;SDS011;9492;51.888;5.186;2023-06-14T06:12:25;5.30;;;2.63;;
18726;SDS011;9492;51.888;5.186;2023-06-14T06:14:51;9.07;;;2.92;;
18726;SDS011;9492;51.888;5.186;2023-06-14T06:17:17;2.92;;;2.60;;
18726;SDS011;9492;51.888;5.186;2023-06-14T06:19:43;4.40;;;2.73;;
18726;SDS011;9492;51.888;5.186;2023-06-14T06:22:09;3.83;;;2.10;;
18726;SDS011;9492;51.888;5.186;2023-06-14T06:24:35;3.90;;;2.70;;
18726;SDS011;9492;51.888;5.186;2023-06-14T06:27:01;5.17;;;2.80;;
18726;SDS011;9492;51.888;5.186;2023-06-14T06:29:27;4.72;;;3.33;;
18726;SDS011;9492;51.888;5.186;2023-06-14T06:31:53;6.47;;;2.92;;
18726;SDS011;9492;51.888;5.186;2023-06-14T06:34:21;3.50;;;2.35;;
18726;SDS011;9492;51.888;5.186;2023-06-14T06:36:47;5.55;;;3.20;;
18726;SDS011;9492;51.888;5.186;2023-06-14T06:39:13;4.82;;;3.10;;
18726;SDS011;9492;51.888;5.186;2023-06-14T06:41:40;3.55;;;2.72;;
18726;SDS011;9492;51.888;5.186;2023-06-14T06:44:06;3.40;;;2.38;;
18726;SDS011;9492;51.888;5.186;2023-06-14T06:46:33;4.28;;;2.72;;
18726;SDS011;9492;51.888;5.186;2023-06-14T06:48:59;5.07;;;3.00;;
18726;SDS011;9492;51.888;5.186;2023-06-14T06:51:25;3.67;;;2.33;;
18726;SDS011;9492;51.888;5.186;2023-06-14T06:53:52;9.90;;;2.90;;
18726;SDS011;9492;51.888;5.186;2023-06-14T06:56:21;8.88;;;2.67;;
18726;SDS011;9492;51.888;5.186;2023-06-14T06:58:51;4.35;;;2.63;;
18726;SDS011;9492;51.888;5.186;2023-06-14T07:01:17;3.97;;;2.63;;
18726;SDS011;9492;51.888;5.186;2023-06-14T07:03:44;3.08;;;2.45;;
18726;SDS011;9492;51.888;5.186;2023-06-14T07:06:18;3.80;;;2.72;;
18726;SDS011;9492;51.888;5.186;2023-06-14T07:08:44;5.85;;;2.72;;
18726;SDS011;9492;51.888;5.186;2023-06-14T07:11:10;4.80;;;2.65;;
18726;SDS011;9492;51.888;5.186;2023-06-14T07:13:36;5.07;;;2.90;;
18726;SDS011;9492;51.888;5.186;2023-06-14T07:16:04;7.18;;;2.95;;
18726;SDS011;9492;51.888;5.186;2023-06-14T07:18:31;4.70;;;2.80;;
18726;SDS011;9492;51.888;5.186;2023-06-14T07:20:57;4.30;;;2.50;;
18726;SDS011;9492;51.888;5.186;2023-06-14T07:23:23;7.35;;;3.03;;
18726;SDS011;9492;51.888;5.186;2023-06-14T07:25:50;5.75;;;2.67;;
18726;SDS011;9492;51.888;5.186;2023-06-14T07:28:16;3.50;;;2.70;;
18726;SDS011;9492;51.888;5.186;2023-06-14T07:30:43;8.20;;;2.65;;
18726;SDS011;9492;51.888;5.186;2023-06-14T07:33:09;7.72;;;3.30;;
18726;SDS011;9492;51.888;5.186;2023-06-14T07:35:38;7.05;;;2.90;;
18726;SDS011;9492;51.888;5.186;2023-06-14T07:38:04;3.55;;;2.83;;
18726;SDS011;9492;51.888;5.186;2023-06-14T07:40:30;5.22;;;2.80;;
18726;SDS011;9492;51.888;5.186;2023-06-14T07:42:56;3.85;;;2.78;;
18726;SDS011;9492;51.888;5.186;2023-06-14T07:45:22;3.45;;;3.03;;
18726;SDS011;9492;51.888;5.186;2023-06-14T07:47:48;4.55;;;2.78;;
18726;SDS011;9492;51.888;5.186;2023-06-14T07:50:15;6.00;;;2.88;;
18726;SDS011;9492;51.888;5.186;2023-06-14T07:52:42;4.63;;;2.90;;
18726;SDS011;9492;51.888;5.186;2023-06-14T07:55:08;5.57;;;3.05;;
18726;SDS011;9492;51.888;5.186;2023-06-14T07:57:34;6.45;;;2.83;;
18726;SDS011;9492;51.888;5.186;2023-06-14T08:00:00;3.17;;;2.67;;
18726;SDS011;9492;51.888;5.186;2023-06-14T08:02:26;5.57;;;2.67;;
18726;SDS011;9492;51.888;5.186;2023-06-14T08:04:52;5.63;;;2.75;;
18726;SDS011;9492;51.888;5.186;2023-06-14T08:07:19;2.85;;;2.50;;
18726;SDS011;9492;51.888;5.186;2023-06-14T08:09:45;3.95;;;3.00;;
18726;SDS011;9492;51.888;5.186;2023-06-14T08:12:11;4.85;;;2.60;;
18726;SDS011;9492;51.888;5.186;2023-06-14T08:14:37;6.05;;;2.97;;
18726;SDS011;9492;51.888;5.186;2023-06-14T08:17:03;3.90;;;2.80;;
18726;SDS011;9492;51.888;5.186;2023-06-14T08:19:29;4.18;;;2.45;;
18726;SDS011;9492;51.888;5.186;2023-06-14T08:21:56;3.38;;;2.70;;
18726;SDS011;9492;51.888;5.186;2023-06-14T08:24:22;4.55;;;2.50;;
18726;SDS011;9492;51.888;5.186;2023-06-14T08:26:49;4.43;;;2.60;;
18726;SDS011;9492;51.888;5.186;2023-06-14T08:29:15;3.00;;;2.67;;
18726;SDS011;9492;51.888;5.186;2023-06-14T08:31:41;3.53;;;2.42;;
18726;SDS011;9492;51.888;5.186;2023-06-14T08:34:07;6.83;;;3.03;;
18726;SDS011;9492;51.888;5.186;2023-06-14T08:36:34;5.13;;;2.50;;
18726;SDS011;9492;51.888;5.186;2023-06-14T08:39:00;6.45;;;2.80;;
18726;SDS011;9492;51.888;5.186;2023-06-14T08:41:27;3.83;;;2.23;;
18726;SDS011;9492;51.888;5.186;2023-06-14T08:43:54;3.37;;;2.13;;
18726;SDS011;9492;51.888;5.186;2023-06-14T08:46:20;4.17;;;2.17;;
18726;SDS011;9492;51.888;5.186;2023-06-14T08:48:50;4.73;;;2.30;;
18726;SDS011;9492;51.888;5.186;2023-06-14T08:51:21;1.90;;;1.80;;
18726;SDS011;9492;51.888;5.186;2023-06-14T08:53:54;5.87;;;2.23;;
18726;SDS011;9492;51.888;5.186;2023-06-14T08:56:27;5.63;;;2.27;;
18726;SDS011;9492;51.888;5.186;2023-06-14T08:58:54;2.57;;;2.10;;
18726;SDS011;9492;51.888;5.186;2023-06-14T09:01:21;2.00;;;1.90;;
18726;SDS011;9492;51.888;5.186;2023-06-14T09:03:48;3.57;;;2.30;;
18726;SDS011;9492;51.888;5.186;2023-06-14T09:06:14;2.63;;;1.43;;
18726;SDS011;9492;51.888;5.186;2023-06-14T09:08:44;1.93;;;1.63;;
18726;SDS011;9492;51.888;5.186;2023-06-14T09:11:11;3.50;;;2.10;;
18726;SDS011;9492;51.888;5.186;2023-06-14T09:16:07;4.17;;;1.77;;
18726;SDS011;9492;51.888;5.186;2023-06-14T09:18:37;2.80;;;1.80;;
18726;SDS011;9492;51.888;5.186;2023-06-14T09:21:05;2.83;;;2.00;;
18726;SDS011;9492;51.888;5.186;2023-06-14T09:23:36;3.30;;;1.70;;
18726;SDS011;9492;51.888;5.186;2023-06-14T09:26:06;3.93;;;1.70;;
18726;SDS011;9492;51.888;5.186;2023-06-14T09:28:32;1.97;;;1.87;;
18726;SDS011;9492;51.888;5.186;2023-06-14T09:31:00;2.20;;;1.40;;
18726;SDS011;9492;51.888;5.186;2023-06-14T09:33:26;1.80;;;1.70;;
18726;SDS011;9492;51.888;5.186;2023-06-14T09:35:52;1.87;;;1.50;;
18726;SDS011;9492;51.888;5.186;2023-06-14T09:38:19;3.43;;;1.37;;
18726;SDS011;9492;51.888;5.186;2023-06-14T09:40:46;3.70;;;1.50;;
18726;SDS011;9492;51.888;5.186;2023-06-14T09:43:12;5.40;;;2.17;;
18726;SDS011;9492;51.888;5.186;2023-06-14T09:45:38;1.90;;;1.30;;
18726;SDS011;9492;51.888;5.186;2023-06-14T09:48:05;5.90;;;1.83;;
18726;SDS011;9492;51.888;5.186;2023-06-14T09:50:32;1.30;;;1.20;;
18726;SDS011;9492;51.888;5.186;2023-06-14T09:53:00;1.40;;;1.30;;
18726;SDS011;9492;51.888;5.186;2023-06-14T09:55:28;3.20;;;1.50;;
18726;SDS011;9492;51.888;5.186;2023-06-14T09:57:55;2.70;;;1.70;;
18726;SDS011;9492;51.888;5.186;2023-06-14T10:00:22;1.70;;;1.20;;
18726;SDS011;9492;51.888;5.186;2023-06-14T10:02:49;2.00;;;1.40;;
18726;SDS011;9492;51.888;5.186;2023-06-14T10:05:19;3.00;;;1.50;;
18726;SDS011;9492;51.888;5.186;2023-06-14T10:07:52;2.20;;;1.77;;
18726;SDS011;9492;51.888;5.186;2023-06-14T10:10:19;2.00;;;1.60;;
18726;SDS011;9492;51.888;5.186;2023-06-14T10:12:45;1.83;;;1.60;;
18726;SDS011;9492;51.888;5.186;2023-06-14T10:15:15;1.60;;;1.50;;
18726;SDS011;9492;51.888;5.186;2023-06-14T10:23:01;2.87;;;1.37;;
18726;SDS011;9492;51.888;5.186;2023-06-14T10:25:29;1.60;;;1.30;;
18726;SDS011;9492;51.888;5.186;2023-06-14T10:28:03;1.30;;;1.20;;
18726;SDS011;9492;51.888;5.186;2023-06-14T10:30:30;1.97;;;1.40;;
18726;SDS011;9492;51.888;5.186;2023-06-14T10:33:06;2.40;;;1.30;;
18726;SDS011;9492;51.888;5.186;2023-06-14T10:35:33;1.57;;;1.10;;
18726;SDS011;9492;51.888;5.186;2023-06-14T10:38:08;1.63;;;1.30;;
18726;SDS011;9492;51.888;5.186;2023-06-14T10:40:35;2.03;;;1.43;;
18726;SDS011;9492;51.888;5.186;2023-06-14T10:43:11;1.73;;;1.43;;
18726;SDS011;9492;51.888;5.186;2023-06-14T10:48:30;1.60;;;1.50;;
18726;SDS011;9492;51.888;5.186;2023-06-14T10:51:00;2.90;;;2.05;;
18726;SDS011;9492;51.888;5.186;2023-06-14T10:53:27;2.53;;;1.58;;
18726;SDS011;9492;51.888;5.186;2023-06-14T10:55:53;1.73;;;1.60;;
18726;SDS011;9492;51.888;5.186;2023-06-14T10:58:22;2.67;;;1.55;;
18726;SDS011;9492;51.888;5.186;2023-06-14T11:00:48;1.67;;;1.50;;
18726;SDS011;9492;51.888;5.186;2023-06-14T11:05:54;3.00;;;1.90;;
18726;SDS011;9492;51.888;5.186;2023-06-14T11:08:37;1.98;;;1.40;;
18726;SDS011;9492;51.888;5.186;2023-06-14T11:11:08;2.85;;;1.50;;
18726;SDS011;9492;51.888;5.186;2023-06-14T11:13:38;2.75;;;1.73;;
18726;SDS011;9492;51.888;5.186;2023-06-14T11:16:12;2.65;;;1.63;;
18726;SDS011;9492;51.888;5.186;2023-06-14T11:18:38;4.30;;;1.63;;
18726;SDS011;9492;51.888;5.186;2023-06-14T11:21:04;4.38;;;1.65;;
18726;SDS011;9492;51.888;5.186;2023-06-14T11:23:30;2.37;;;1.67;;
18726;SDS011;9492;51.888;5.186;2023-06-14T11:25:56;4.72;;;1.25;;
18726;SDS011;9492;51.888;5.186;2023-06-14T11:28:22;2.88;;;1.70;;
18726;SDS011;9492;51.888;5.186;2023-06-14T11:31:09;1.77;;;1.55;;
18726;SDS011;9492;51.888;5.186;2023-06-14T11:33:35;2.70;;;1.60;;
18726;SDS011;9492;51.888;5.186;2023-06-14T11:36:05;1.57;;;1.47;;
18726;SDS011;9492;51.888;5.186;2023-06-14T11:38:36;2.83;;;1.50;;
18726;SDS011;9492;51.888;5.186;2023-06-14T11:41:02;2.15;;;1.50;;
18726;SDS011;9492;51.888;5.186;2023-06-14T11:43:28;1.30;;;1.20;;
18726;SDS011;9492;51.888;5.186;2023-06-14T11:45:56;1.23;;;1.13;;
18726;SDS011;9492;51.888;5.186;2023-06-14T11:48:22;1.45;;;1.35;;
18726;SDS011;9492;51.888;5.186;2023-06-14T11:50:49;2.83;;;1.58;;
18726;SDS011;9492;51.888;5.186;2023-06-14T11:53:16;2.97;;;1.70;;
18726;SDS011;9492;51.888;5.186;2023-06-14T11:55:42;1.60;;;1.50;;
18726;SDS011;9492;51.888;5.186;2023-06-14T11:58:10;1.58;;;1.40;;
18726;SDS011;9492;51.888;5.186;2023-06-14T12:00:36;4.60;;;1.77;;
18726;SDS011;9492;51.888;5.186;2023-06-14T12:03:02;2.42;;;1.60;;
18726;SDS011;9492;51.888;5.186;2023-06-14T12:05:28;3.97;;;1.50;;
18726;SDS011;9492;51.888;5.186;2023-06-14T12:07:58;2.53;;;1.60;;
18726;SDS011;9492;51.888;5.186;2023-06-14T12:10:28;2.95;;;1.70;;
18726;SDS011;9492;51.888;5.186;2023-06-14T12:12:58;2.67;;;1.40;;
18726;SDS011;9492;51.888;5.186;2023-06-14T12:15:24;2.28;;;1.55;;
18726;SDS011;9492;51.888;5.186;2023-06-14T12:17:54;1.57;;;1.40;;
18726;SDS011;9492;51.888;5.186;2023-06-14T12:20:20;3.47;;;1.87;;
18726;SDS011;9492;51.888;5.186;2023-06-14T12:22:53;2.00;;;1.60;;
18726;SDS011;9492;51.888;5.186;2023-06-14T12:27:52;2.50;;;1.80;;
18726;SDS011;9492;51.888;5.186;2023-06-14T12:30:18;3.50;;;1.40;;
18726;SDS011;9492;51.888;5.186;2023-06-14T12:32:44;1.77;;;1.40;;
18726;SDS011;9492;51.888;5.186;2023-06-14T12:35:10;2.13;;;1.47;;
18726;SDS011;9492;51.888;5.186;2023-06-14T12:37:36;2.95;;;1.70;;
18726;SDS011;9492;51.888;5.186;2023-06-14T12:40:03;2.47;;;1.57;;
18726;SDS011;9492;51.888;5.186;2023-06-14T12:42:31;0.98;;;0.98;;
18726;SDS011;9492;51.888;5.186;2023-06-14T12:44:58;2.35;;;1.30;;
18726;SDS011;9492;51.888;5.186;2023-06-14T12:47:24;4.13;;;1.65;;
18726;SDS011;9492;51.888;5.186;2023-06-14T12:49:50;2.28;;;1.65;;
18726;SDS011;9492;51.888;5.186;2023-06-14T12:52:16;2.50;;;2.00;;
18726;SDS011;9492;51.888;5.186;2023-06-14T12:54:42;1.50;;;1.40;;
18726;SDS011;9492;51.888;5.186;2023-06-14T12:57:08;1.70;;;1.60;;
18726;SDS011;9492;51.888;5.186;2023-06-14T12:59:35;1.52;;;1.40;;
18726;SDS011;9492;51.888;5.186;2023-06-14T13:02:11;4.47;;;1.45;;
18726;SDS011;9492;51.888;5.186;2023-06-14T13:04:37;2.40;;;1.35;;
18726;SDS011;9492;51.888;5.186;2023-06-14T13:07:03;3.42;;;1.52;;
18726;SDS011;9492;51.888;5.186;2023-06-14T13:09:30;2.70;;;1.58;;
18726;SDS011;9492;51.888;5.186;2023-06-14T13:11:56;2.90;;;1.67;;
18726;SDS011;9492;51.888;5.186;2023-06-14T13:14:22;1.40;;;1.30;;
18726;SDS011;9492;51.888;5.186;2023-06-14T13:16:48;6.15;;;1.70;;
18726;SDS011;9492;51.888;5.186;2023-06-14T13:19:14;2.85;;;1.60;;
18726;SDS011;9492;51.888;5.186;2023-06-14T13:21:40;2.72;;;1.67;;
18726;SDS011;9492;51.888;5.186;2023-06-14T13:24:06;4.47;;;2.03;;
18726;SDS011;9492;51.888;5.186;2023-06-14T13:26:32;1.40;;;1.20;;
18726;SDS011;9492;51.888;5.186;2023-06-14T13:28:59;3.73;;;1.47;;
18726;SDS011;9492;51.888;5.186;2023-06-14T13:31:25;2.40;;;1.53;;
18726;SDS011;9492;51.888;5.186;2023-06-14T13:33:51;1.50;;;1.40;;
18726;SDS011;9492;51.888;5.186;2023-06-14T13:36:17;1.63;;;1.53;;
18726;SDS011;9492;51.888;5.186;2023-06-14T13:38:43;2.47;;;1.77;;
18726;SDS011;9492;51.888;5.186;2023-06-14T13:41:09;1.75;;;1.65;;
18726;SDS011;9492;51.888;5.186;2023-06-14T13:43:35;1.80;;;1.70;;
18726;SDS011;9492;51.888;5.186;2023-06-14T13:46:01;1.35;;;1.20;;
18726;SDS011;9492;51.888;5.186;2023-06-14T13:48:27;1.63;;;1.52;;
18726;SDS011;9492;51.888;5.186;2023-06-14T13:50:53;4.67;;;1.37;;
18726;SDS011;9492;51.888;5.186;2023-06-14T13:53:19;1.60;;;1.50;;
18726;SDS011;9492;51.888;5.186;2023-06-14T13:55:45;2.47;;;1.50;;
18726;SDS011;9492;51.888;5.186;2023-06-14T13:58:11;5.07;;;1.70;;
18726;SDS011;9492;51.888;5.186;2023-06-14T14:00:39;1.63;;;1.40;;
18726;SDS011;9492;51.888;5.186;2023-06-14T14:03:05;3.50;;;1.50;;
18726;SDS011;9492;51.888;5.186;2023-06-14T14:05:31;1.50;;;1.40;;
18726;SDS011;9492;51.888;5.186;2023-06-14T14:07:58;2.03;;;1.63;;
18726;SDS011;9492;51.888;5.186;2023-06-14T14:10:24;2.88;;;1.60;;
18726;SDS011;9492;51.888;5.186;2023-06-14T14:12:53;3.22;;;1.40;;
18726;SDS011;9492;51.888;5.186;2023-06-14T14:15:19;5.20;;;1.45;;
18726;SDS011;9492;51.888;5.186;2023-06-14T14:17:45;1.30;;;1.23;;
18726;SDS011;9492;51.888;5.186;2023-06-14T14:20:12;3.13;;;1.70;;
18726;SDS011;9492;51.888;5.186;2023-06-14T14:22:41;1.40;;;1.30;;
18726;SDS011;9492;51.888;5.186;2023-06-14T14:25:07;2.05;;;1.27;;
18726;SDS011;9492;51.888;5.186;2023-06-14T14:27:33;1.20;;;1.10;;
18726;SDS011;9492;51.888;5.186;2023-06-14T14:29:59;2.80;;;1.40;;
18726;SDS011;9492;51.888;5.186;2023-06-14T14:32:25;2.28;;;1.40;;
18726;SDS011;9492;51.888;5.186;2023-06-14T14:34:51;1.92;;;1.30;;
18726;SDS011;9492;51.888;5.186;2023-06-14T14:37:17;2.10;;;1.63;;
18726;SDS011;9492;51.888;5.186;2023-06-14T14:39:44;2.07;;;1.50;;
18726;SDS011;9492;51.888;5.186;2023-06-14T14:42:10;2.03;;;1.50;;
18726;SDS011;9492;51.888;5.186;2023-06-14T14:44:37;2.13;;;1.50;;
18726;SDS011;9492;51.888;5.186;2023-06-14T14:47:03;1.60;;;1.50;;
18726;SDS011;9492;51.888;5.186;2023-06-14T14:49:30;1.40;;;1.30;;
18726;SDS011;9492;51.888;5.186;2023-06-14T14:51:56;1.53;;;1.33;;
18726;SDS011;9492;51.888;5.186;2023-06-14T14:54:22;3.40;;;1.45;;
18726;SDS011;9492;51.888;5.186;2023-06-14T14:56:50;2.53;;;1.35;;
18726;SDS011;9492;51.888;5.186;2023-06-14T14:59:16;2.53;;;1.83;;
18726;SDS011;9492;51.888;5.186;2023-06-14T15:01:43;1.35;;;1.23;;
18726;SDS011;9492;51.888;5.186;2023-06-14T15:04:10;1.08;;;1.08;;
18726;SDS011;9492;51.888;5.186;2023-06-14T15:06:36;3.50;;;1.08;;
18726;SDS011;9492;51.888;5.186;2023-06-14T15:09:04;1.63;;;1.50;;
18726;SDS011;9492;51.888;5.186;2023-06-14T15:11:30;1.30;;;1.20;;
18726;SDS011;9492;51.888;5.186;2023-06-14T15:13:56;1.60;;;1.30;;
18726;SDS011;9492;51.888;5.186;2023-06-14T15:16:22;2.70;;;1.10;;
18726;SDS011;9492;51.888;5.186;2023-06-14T15:18:48;1.20;;;1.10;;
18726;SDS011;9492;51.888;5.186;2023-06-14T15:21:15;3.33;;;1.35;;